Time;durP1;ratioP1;P1;durP2;ratioP2;P2;SDS_P1;SDS_P2;PMS_P1;PMS_P2;Temp;Humidity;BMP_temperature;BMP_pressure;BME280_temperature;BME280_humidity;BME280_pressure;Samples;Min_cycle;Max_cycle;Signal;HPM_P1;HPM_P2
2023/07/10 06:19:37;;;;;;;12.05;7.72;;;;;;;25.98;58.73;100826.63;5606395;31;77867;-60
2023/07/10 06:22:40;;;;;;;13.82;8.32;;;;;;;25.98;58.73;100826.63;5583973;31;33379;-60
2023/07/10 06:25:44;;;;;;;12.77;7.55;;;;;;;25.62;59.06;100825.34;5584062;31;33493;-60
2023/07/10 06:28:46;;;;;;;14.10;8.27;;;;;;;25.73;59.95;100836.47;5583773;31;33649;-60
2023/07/10 06:31:48;;;;;;;10.43;7.32;;;;;;;25.84;58.67;100823.69;5579711;31;33602;-61
2023/07/10 06:34:51;;;;;;;11.25;7.93;;;;;;;25.96;58.70;100836.38;5596684;31;33618;-60
2023/07/10 06:37:53;;;;;;;9.48;7.78;;;;;;;26.10;59.85;100835.78;5603267;31;34279;-61
2023/07/10 06:40:56;;;;;;;12.05;8.10;;;;;;;26.22;59.14;100835.50;5584867;31;34177;-61
2023/07/10 06:43:58;;;;;;;11.18;7.15;;;;;;;26.28;58.75;100828.53;5583320;31;33686;-60
2023/07/10 06:47:01;;;;;;;12.48;7.93;;;;;;;26.45;59.25;100829.87;5583721;32;34170;-60
2023/07/10 06:50:03;;;;;;;12.37;7.82;;;;;;;26.65;59.31;100820.28;5583478;31;33550;-61
2023/07/10 06:53:07;;;;;;;13.57;7.45;;;;;;;26.69;59.00;100821.13;5583653;31;33580;-61
2023/07/10 06:56:26;;;;;;;10.73;7.75;;;;;;;26.78;58.87;100822.75;5583427;32;34387;-61
2023/07/10 06:59:28;;;;;;;12.15;7.65;;;;;;;26.90;58.35;100822.47;5583443;31;34513;-61
2023/07/10 07:02:31;;;;;;;12.57;7.35;;;;;;;27.07;58.83;100821.81;5583430;32;33470;-61
2023/07/10 07:05:34;;;;;;;11.27;7.05;;;;;;;27.14;58.05;100821.09;5583258;32;33624;-61
2023/07/10 07:08:36;;;;;;;9.02;6.87;;;;;;;27.24;57.26;100811.34;5583482;32;33584;-61
2023/07/10 07:11:38;;;;;;;11.65;6.80;;;;;;;27.35;55.41;100814.94;5588413;31;34373;-61
2023/07/10 07:14:41;;;;;;;11.70;7.43;;;;;;;27.41;55.70;100819.69;5603060;31;34285;-61
2023/07/10 07:17:43;;;;;;;10.90;6.97;;;;;;;27.51;56.08;100807.16;5602521;31;33643;-61
2023/07/10 07:20:48;;;;;;;12.48;7.37;;;;;;;27.61;54.77;100805.63;5603087;31;33559;-61
2023/07/10 07:23:50;;;;;;;8.05;6.37;;;;;;;27.67;54.56;100800.56;5602884;31;33223;-61
2023/07/10 07:26:53;;;;;;;11.32;6.70;;;;;;;27.86;55.37;100798.31;5603138;31;34332;-61
2023/07/10 07:29:55;;;;;;;8.18;6.65;;;;;;;28.05;52.80;100797.19;5594290;31;34389;-61
2023/07/10 07:32:58;;;;;;;10.93;6.28;;;;;;;28.09;52.89;100805.47;5589612;31;33625;-61
2023/07/10 07:36:02;;;;;;;9.15;6.25;;;;;;;28.13;49.73;100800.75;5589525;31;34248;-61
2023/07/10 07:39:05;;;;;;;10.27;6.23;;;;;;;28.21;48.90;100804.31;5589674;31;33635;-61
2023/07/10 07:42:09;;;;;;;12.77;6.03;;;;;;;28.31;48.75;100800.78;5589524;31;33546;-61
2023/07/10 07:45:12;;;;;;;8.68;5.97;;;;;;;28.37;47.22;100801.19;5589637;31;33864;-61
2023/07/10 07:48:14;;;;;;;7.45;5.87;;;;;;;28.46;46.58;100794.16;5589366;31;33811;-61
2023/07/10 07:51:17;;;;;;;9.23;6.05;;;;;;;28.54;47.60;100789.41;5589615;31;34351;-61
2023/07/10 07:54:20;;;;;;;9.40;5.78;;;;;;;28.62;48.01;100785.50;5589344;31;33375;-61
2023/07/10 07:57:23;;;;;;;7.70;6.40;;;;;;;28.68;48.12;100796.94;5589436;31;33398;-61
2023/07/10 08:00:25;;;;;;;7.85;6.00;;;;;;;28.74;47.08;100796.16;5589438;31;34267;-61
2023/07/10 08:03:31;;;;;;;7.25;5.78;;;;;;;28.80;47.90;100799.28;5589515;31;33760;-61
2023/07/10 08:06:34;;;;;;;10.77;5.87;;;;;;;28.92;46.81;100787.06;5580785;31;33659;-61
2023/07/10 08:09:37;;;;;;;7.57;5.57;;;;;;;28.97;46.79;100781.94;5569631;32;33615;-61
2023/07/10 08:12:39;;;;;;;8.60;5.37;;;;;;;29.05;44.72;100787.50;5569556;32;33557;-60
2023/07/10 08:15:42;;;;;;;7.68;5.87;;;;;;;29.12;43.75;100777.22;5569564;32;34409;-61
2023/07/10 08:18:45;;;;;;;9.30;5.95;;;;;;;29.19;43.20;100784.69;5569382;32;34000;-61
2023/07/10 08:21:47;;;;;;;8.73;6.03;;;;;;;29.25;43.01;100770.09;5569469;32;33748;-61
2023/07/10 08:24:50;;;;;;;17.87;6.65;;;;;;;29.28;44.04;100782.31;5569613;32;33590;-61
2023/07/10 08:27:52;;;;;;;15.68;6.53;;;;;;;29.35;44.70;100771.25;5569540;32;33652;-61
2023/07/10 08:30:55;;;;;;;8.52;5.05;;;;;;;29.40;44.88;100761.75;5569416;32;34259;-61
2023/07/10 08:33:57;;;;;;;9.23;6.18;;;;;;;29.47;45.50;100765.28;5569427;32;34367;-61
2023/07/10 08:36:59;;;;;;;8.25;5.72;;;;;;;29.46;44.21;100760.16;5569478;32;34335;-61
2023/07/10 08:40:04;;;;;;;7.50;5.70;;;;;;;29.56;42.76;100756.56;5568985;32;33405;-61
2023/07/10 08:43:18;;;;;;;7.50;5.60;;;;;;;29.52;41.92;100757.78;5568993;32;34299;-61
2023/07/10 08:46:23;;;;;;;;;;;;;;;29.61;40.35;100753.41;5569698;32;33610;-61
2023/07/10 08:49:35;;;;;;;10.53;5.27;;;;;;;29.61;39.91;100750.66;5569628;32;33754;-61
2023/07/10 08:52:47;;;;;;;8.80;5.65;;;;;;;29.67;40.43;100751.03;5569522;32;34324;-61
2023/07/10 08:56:23;;;;;;;7.68;5.40;;;;;;;29.70;40.10;100753.78;5569622;32;33315;-61
2023/07/10 08:59:48;;;;;;;12.68;5.40;;;;;;;29.79;41.18;100750.56;5569526;32;34303;-61
2023/07/10 09:02:57;;;;;;;8.20;5.70;;;;;;;29.87;39.37;100746.59;5569593;32;33986;-61
2023/07/10 09:06:03;;;;;;;8.95;5.65;;;;;;;29.94;39.53;100748.53;5569561;32;33653;-61
2023/07/10 09:09:35;;;;;;;8.15;5.57;;;;;;;30.05;39.21;100740.16;5569531;32;34320;-61
2023/07/10 09:12:45;;;;;;;7.85;5.37;;;;;;;30.22;38.83;100744.81;5578174;31;33729;-61
2023/07/10 09:15:55;;;;;;;7.35;5.75;;;;;;;30.25;39.25;100741.22;5588676;31;34208;-61
2023/07/10 09:19:06;;;;;;;8.65;5.62;;;;;;;30.28;39.83;100748.72;5588479;31;33554;-61
2023/07/10 09:22:10;;;;;;;9.38;6.25;;;;;;;30.36;40.65;100743.91;5588690;31;33816;-61
2023/07/10 09:25:13;;;;;;;11.25;6.72;;;;;;;30.29;40.93;100746.72;5588345;31;34274;-61
2023/07/10 09:28:16;;;;;;;7.15;5.70;;;;;;;30.22;42.49;100746.78;5588634;31;34294;-61
2023/07/10 09:31:45;;;;;;;18.25;6.37;;;;;;;30.12;41.91;100737.34;5588939;31;33910;-61
